Portada
METAR-TAF:

METAR-TAF

Aeroports :

Diego Garcia, Territori Britànic de l'Oceà Índic

latitud: 07-18S, longitud: 072-24E, altitud: 1 m

Observació

L'informe es va fer fa 1 hora i 4 minuts, a les 08:55 UTC
Vent 6 kt del Sud/Sud-Oest
Temperatura 31°C
Humitat 71%
Pressió 1009 hPa
Visibilitat 10 km o més
Escasses núvols a una alçada de 2000 ft
Escasses núvols a una alçada de 25000 ft

METAR: FJDG 240855Z 20006KT 9999 FEW020 FEW250 31/25 A2979 RMK SLP085 8/101 T03080254 57020

Hora: 15:59 (09:59 UTC)

Pronòstic

L'informe es va fer fa 59 minuts, a les 09:00 UTC
Pronòstic vàlid del 24 a les 09 UTC al 25 a les 15 UTC
Vent 9 kt del Sud/Sud-Oest
Visibilitat 10 km o més
Escasses núvols a una alçada de 2000 ft
Escasses núvols a una alçada de 25000 ft

TAF: FJDG 240900Z 2409/2515 20009KT 9999 FEW020 FEW250 QNH2975INS TX32/2504Z TN26/2423Z

Observacions i pronòstics meteorològics de més de 4000 aeroports (METAR i TAF).

Les estacions disponibles són els punts grocs i vermells al mapa.

Posi el ratolí al punt desitjat per veure el nom de l'estació.

Feu clic per veure les observacions i els pronòstics meteorològics.

Per canviar el mapa: feu clic els botons verds amb una creu de color negre per apropar; al botó verd amb un guió per allunyar la imatge; o en les fletxes verdes per a mapes adjacents.


METAR-TAF: